createdAt,value
2019-04-25T00:01:54.499Z,20.90
2019-04-25T00:06:54.299Z,20.80
2019-04-25T00:11:54.318Z,20.80
2019-04-25T00:16:54.731Z,20.80
2019-04-25T00:22:05.503Z,20.80
2019-04-25T00:27:05.307Z,20.70
2019-04-25T00:32:05.167Z,20.70
2019-04-25T00:37:04.819Z,20.70
2019-04-25T00:42:05.231Z,20.60
2019-04-25T00:47:05.052Z,20.60
2019-04-25T00:52:04.759Z,20.60
2019-04-25T00:57:04.650Z,20.40
2019-04-25T01:02:22.306Z,20.10
2019-04-25T01:07:22.530Z,20.10
2019-04-25T01:12:22.325Z,20.20
2019-04-25T01:17:22.907Z,20.10
2019-04-25T01:22:23.243Z,20.10
2019-04-25T01:27:23.499Z,20.10
2019-04-25T01:32:34.966Z,20.00
2019-04-25T01:37:44.938Z,19.90
2019-04-25T01:43:06.883Z,19.80
2019-04-25T01:48:07.866Z,19.60
2019-04-25T01:53:07.919Z,19.50
2019-04-25T01:58:08.599Z,19.40
2019-04-25T02:03:09.106Z,19.30
2019-04-25T02:08:09.089Z,19.30
2019-04-25T02:13:11.427Z,19.30
2019-04-25T02:18:11.154Z,19.20
2019-04-25T02:23:10.878Z,19.20
2019-04-25T02:28:10.890Z,19.10
2019-04-25T02:33:10.535Z,19.10
2019-04-25T02:38:10.492Z,19.10
2019-04-25T02:43:10.102Z,19.00
2019-04-25T02:48:34.170Z,19.00
2019-04-25T02:53:37.400Z,19.00
2019-04-25T02:58:36.751Z,18.90
2019-04-25T03:03:36.431Z,18.80
2019-04-25T03:08:36.571Z,18.70
2019-04-25T03:13:36.448Z,18.60
2019-04-25T03:18:41.442Z,18.50
2019-04-25T03:23:46.202Z,18.30
2019-04-25T03:28:44.838Z,18.30
2019-04-25T03:33:45.959Z,18.30
2019-04-25T03:38:46.015Z,18.20
2019-04-25T03:43:46.548Z,18.20
2019-04-25T03:48:46.390Z,18.00
2019-04-25T03:53:46.114Z,17.90
2019-04-25T03:58:46.018Z,17.90
2019-04-25T04:03:45.673Z,17.80
2019-04-25T04:08:45.325Z,17.80
2019-04-25T04:13:45.285Z,17.70
2019-04-25T04:18:46.535Z,17.60
2019-04-25T04:24:11.815Z,17.60
2019-04-25T04:29:12.430Z,17.50
2019-04-25T04:34:14.696Z,17.50
2019-04-25T04:39:16.823Z,17.40
2019-04-25T04:44:16.502Z,17.40
2019-04-25T04:49:16.431Z,17.30
2019-04-25T04:54:16.981Z,17.30
2019-04-25T04:59:16.774Z,17.30
2019-04-25T05:04:25.126Z,17.20
2019-04-25T05:09:28.059Z,17.20
2019-04-25T05:14:28.058Z,17.20
2019-04-25T05:19:27.747Z,17.20
2019-04-25T05:24:27.406Z,17.20
2019-04-25T05:29:27.422Z,17.30
2019-04-25T05:34:27.054Z,17.30
2019-04-25T05:39:26.698Z,17.40
2019-04-25T05:44:27.399Z,17.40
2019-04-25T05:49:27.559Z,17.50
2019-04-25T05:54:27.339Z,17.50
2019-04-25T05:59:27.980Z,17.60
2019-04-25T06:04:27.694Z,17.70
2019-04-25T06:09:55.390Z,17.70
2019-04-25T06:14:56.111Z,17.90
2019-04-25T06:19:55.965Z,17.90
2019-04-25T06:25:12.326Z,18.00
2019-04-25T06:30:15.878Z,18.00
2019-04-25T06:35:15.622Z,18.10
2019-04-25T06:40:17.469Z,18.20
2019-04-25T06:45:44.043Z,18.30
2019-04-25T06:50:43.911Z,18.40
2019-04-25T06:55:44.907Z,18.50
2019-04-25T07:00:57.147Z,18.70
2019-04-25T07:05:46.287Z,18.80
2019-04-25T07:10:45.962Z,18.90
2019-04-25T07:15:45.679Z,19.00
2019-04-25T07:20:45.473Z,19.20
2019-04-25T07:25:53.707Z,19.30
2019-04-25T07:31:11.100Z,19.50
2019-04-25T07:36:10.877Z,19.70
2019-04-25T07:41:10.630Z,20.00
2019-04-25T07:46:10.755Z,20.20
2019-04-25T07:51:10.443Z,20.30
2019-04-25T07:56:10.199Z,20.50
2019-04-25T08:01:11.542Z,20.70
2019-04-25T08:06:11.368Z,20.90
2019-04-25T08:11:11.379Z,21.10
2019-04-25T08:16:14.457Z,21.40
2019-04-25T08:21:15.346Z,21.60
2019-04-25T08:26:15.247Z,21.90
2019-04-25T08:31:15.019Z,22.20
2019-04-25T08:36:14.970Z,22.40
2019-04-25T08:41:14.590Z,22.60
2019-04-25T08:46:14.250Z,22.80
2019-04-25T08:51:15.970Z,23.10
2019-04-25T08:56:20.212Z,23.20
2019-04-25T09:01:31.542Z,23.40
2019-04-25T09:06:33.314Z,23.50
2019-04-25T09:11:36.633Z,23.60
2019-04-25T09:16:36.583Z,23.50
2019-04-25T09:21:37.875Z,23.60
2019-04-25T09:26:38.335Z,23.70
2019-04-25T09:31:39.218Z,23.80
2019-04-25T09:36:39.954Z,24.00
2019-04-25T09:41:39.919Z,24.10
2019-04-25T09:46:44.123Z,24.20
2019-04-25T09:51:55.659Z,24.30
2019-04-25T09:56:59.139Z,24.40
2019-04-25T10:01:58.854Z,24.40
2019-04-25T10:06:58.856Z,24.60
2019-04-25T10:11:58.593Z,24.70
2019-04-25T10:16:58.295Z,24.80
2019-04-25T10:21:58.119Z,24.90
2019-04-25T10:26:59.686Z,25.10
2019-04-25T10:31:59.343Z,25.20
2019-04-25T10:36:58.994Z,25.40
2019-04-25T10:41:58.727Z,25.50
2019-04-25T10:46:58.469Z,25.70
2019-04-25T10:51:58.107Z,25.80
2019-04-25T10:56:57.865Z,26.00
2019-04-25T11:01:57.567Z,26.20
2019-04-25T11:06:58.891Z,26.30
2019-04-25T11:11:58.678Z,26.30
2019-04-25T11:16:58.407Z,26.50
2019-04-25T11:21:58.178Z,26.60
2019-04-25T11:26:57.971Z,26.70
2019-04-25T11:31:58.119Z,26.80
2019-04-25T11:36:58.027Z,27.00
2019-04-25T11:41:58.178Z,27.20
2019-04-25T11:46:58.792Z,27.30
2019-04-25T11:51:58.666Z,27.50
2019-04-25T11:56:58.291Z,27.60
2019-04-25T12:01:59.039Z,27.80
2019-04-25T12:06:58.702Z,28.00
2019-04-25T12:11:58.342Z,28.10
2019-04-25T12:16:59.127Z,28.30
2019-04-25T12:21:58.842Z,28.40
2019-04-25T12:26:58.814Z,28.50
2019-04-25T12:31:58.691Z,28.70
2019-04-25T12:36:58.518Z,28.90
2019-04-25T12:41:58.501Z,28.90
2019-04-25T12:47:00.610Z,29.00
2019-04-25T12:52:00.251Z,29.20
2019-04-25T12:56:59.943Z,29.30
2019-04-25T13:02:00.154Z,29.50
2019-04-25T13:07:00.334Z,29.70
2019-04-25T13:12:00.359Z,29.80
2019-04-25T13:17:00.407Z,29.90
2019-04-25T13:22:00.677Z,30.00
2019-04-25T13:27:06.189Z,30.00
2019-04-25T13:32:32.976Z,30.20
2019-04-25T13:37:34.164Z,30.20
2019-04-25T13:42:34.062Z,30.20
2019-04-25T13:47:34.191Z,30.20
2019-04-25T13:52:35.799Z,30.10
2019-04-25T13:57:35.287Z,30.20
2019-04-25T14:02:35.066Z,30.30
2019-04-25T14:07:34.919Z,30.20
2019-04-25T14:12:34.542Z,30.10
2019-04-25T14:17:44.867Z,30.20
2019-04-25T14:22:45.408Z,30.20
2019-04-25T14:27:45.213Z,30.00
2019-04-25T14:32:44.931Z,29.80
2019-04-25T14:37:44.658Z,29.70
2019-04-25T14:42:44.374Z,29.60
2019-04-25T14:47:44.120Z,29.50
2019-04-25T14:52:43.814Z,29.50
2019-04-25T14:57:43.493Z,29.50
2019-04-25T15:02:43.227Z,29.30
2019-04-25T15:07:43.038Z,29.10
2019-04-25T15:12:42.887Z,28.70
2019-04-25T15:17:46.290Z,28.20
2019-04-25T15:22:43.874Z,28.10
2019-04-25T15:27:43.822Z,28.10
2019-04-25T15:32:43.564Z,28.00
2019-04-25T15:37:51.714Z,28.00
2019-04-25T15:43:19.868Z,28.00
2019-04-25T15:48:19.621Z,27.90
2019-04-25T15:53:19.291Z,27.70
2019-04-25T15:58:18.940Z,27.60
2019-04-25T16:03:19.035Z,27.30
2019-04-25T16:08:18.759Z,27.20
2019-04-25T16:13:18.704Z,26.90
2019-04-25T16:18:18.406Z,26.70
2019-04-25T16:23:18.482Z,26.80
2019-04-25T16:28:18.147Z,26.70
2019-04-25T16:33:17.838Z,26.70
2019-04-25T16:38:17.634Z,26.50
2019-04-25T16:43:21.389Z,26.30
2019-04-25T16:48:22.092Z,26.30
2019-04-25T16:53:23.442Z,26.00
2019-04-25T16:58:23.404Z,25.80
2019-04-25T17:03:25.579Z,25.80
2019-04-25T17:08:26.067Z,25.80
2019-04-25T17:13:29.690Z,25.70
2019-04-25T17:18:38.261Z,25.70
2019-04-25T17:23:39.659Z,25.70
2019-04-25T17:28:41.351Z,25.70
2019-04-25T17:33:48.040Z,25.60
2019-04-25T17:38:56.874Z,25.50
2019-04-25T17:43:56.684Z,25.40
2019-04-25T17:48:56.615Z,25.30
2019-04-25T17:53:56.267Z,25.20
2019-04-25T17:58:55.927Z,25.10
2019-04-25T18:03:55.962Z,25.00
2019-04-25T18:08:55.710Z,24.90
2019-04-25T18:13:55.650Z,24.80
2019-04-25T18:19:20.527Z,24.80
2019-04-25T18:24:39.048Z,24.70
2019-04-25T18:29:39.459Z,24.60
2019-04-25T18:34:57.624Z,24.50
2019-04-25T18:40:31.712Z,24.40
2019-04-25T18:45:32.940Z,24.30
2019-04-25T18:50:37.313Z,24.20
2019-04-25T18:55:47.840Z,24.10
2019-04-25T19:00:57.602Z,24.10
2019-04-25T19:06:03.250Z,23.90
2019-04-25T19:11:03.705Z,23.80
2019-04-25T19:16:04.754Z,23.70
2019-04-25T19:21:06.004Z,23.50
2019-04-25T19:26:06.006Z,23.50
2019-04-25T19:31:05.738Z,23.40
2019-04-25T19:36:05.682Z,23.30
2019-04-25T19:41:14.202Z,23.20
2019-04-25T19:46:14.910Z,23.10
2019-04-25T19:51:15.638Z,23.00
2019-04-25T19:56:15.566Z,22.90
2019-04-25T20:01:15.515Z,22.80
2019-04-25T20:06:34.374Z,22.70
2019-04-25T20:11:38.511Z,22.60
2019-04-25T20:16:44.900Z,22.50
2019-04-25T20:21:45.847Z,22.40
2019-04-25T20:26:46.336Z,22.20
2019-04-25T20:31:46.515Z,22.10
2019-04-25T20:36:47.395Z,22.10
2019-04-25T20:41:48.105Z,22.00
2019-04-25T20:46:48.496Z,22.00
2019-04-25T20:51:48.477Z,21.90
2019-04-25T20:56:49.157Z,21.80
2019-04-25T21:01:49.684Z,21.80
2019-04-25T21:06:49.482Z,21.80
2019-04-25T21:11:49.895Z,21.70
2019-04-25T21:17:10.972Z,21.70
2019-04-25T21:22:10.708Z,21.70
2019-04-25T21:27:10.346Z,21.70
2019-04-25T21:32:10.133Z,21.70
2019-04-25T21:37:09.780Z,21.70
2019-04-25T21:42:22.822Z,21.70
2019-04-25T21:47:22.778Z,21.60
2019-04-25T22:11:33.414Z,20.40
2019-04-25T22:16:33.502Z,20.30
2019-04-25T22:21:38.488Z,20.50
2019-04-25T22:26:36.225Z,20.60
2019-04-25T22:31:43.873Z,20.70
2019-04-25T22:36:44.121Z,20.70
2019-04-25T22:41:46.941Z,20.70
2019-04-25T22:46:47.210Z,20.70
2019-04-25T22:51:46.867Z,20.70
2019-04-25T22:56:47.227Z,20.70
2019-04-25T23:02:15.678Z,20.60
2019-04-25T23:07:17.350Z,20.60
2019-04-25T23:12:17.454Z,20.70
2019-04-25T23:17:17.335Z,20.60
2019-04-25T23:22:17.698Z,20.70
2019-04-25T23:27:40.031Z,20.60
2019-04-25T23:32:39.659Z,20.60
2019-04-25T23:37:39.319Z,20.70
2019-04-25T23:42:38.986Z,20.60
2019-04-25T23:47:38.936Z,20.70
2019-04-25T23:52:38.969Z,20.60
2019-04-25T23:57:38.966Z,20.60
